createdAt,value
2023-02-15T00:02:06.463Z,6.20
2023-02-15T00:04:49.118Z,6.00
2023-02-15T00:07:18.740Z,5.80
2023-02-15T00:09:48.157Z,5.80
2023-02-15T00:12:17.294Z,5.80
2023-02-15T00:14:45.336Z,5.90
2023-02-15T00:17:13.178Z,5.90
2023-02-15T00:19:41.237Z,5.80
2023-02-15T00:22:09.408Z,5.70
2023-02-15T00:24:37.204Z,5.80
2023-02-15T00:27:05.253Z,5.70
2023-02-15T00:29:33.170Z,5.50
2023-02-15T00:32:00.953Z,5.60
2023-02-15T00:34:29.407Z,5.50
2023-02-15T00:36:58.591Z,5.50
2023-02-15T00:39:26.682Z,5.50
2023-02-15T00:41:54.446Z,5.70
2023-02-15T00:44:22.255Z,5.80
2023-02-15T00:46:49.998Z,5.70
2023-02-15T00:49:17.712Z,5.60
2023-02-15T00:51:45.425Z,5.50
2023-02-15T00:54:13.170Z,5.50
2023-02-15T00:56:40.965Z,5.50
2023-02-15T00:59:10.500Z,5.40
2023-02-15T01:01:38.346Z,5.30
2023-02-15T01:04:06.315Z,5.20
2023-02-15T01:06:34.152Z,5.10
2023-02-15T01:09:01.827Z,5.10
2023-02-15T01:11:30.532Z,5.10
2023-02-15T01:13:59.816Z,5.10
2023-02-15T01:16:29.220Z,5.10
2023-02-15T01:18:57.439Z,5.30
2023-02-15T01:21:26.777Z,5.50
2023-02-15T01:23:55.154Z,5.70
2023-02-15T01:26:22.914Z,5.70
2023-02-15T01:28:50.657Z,5.50
2023-02-15T01:31:20.550Z,5.40
2023-02-15T01:33:49.454Z,5.50
2023-02-15T01:36:18.588Z,5.40
2023-02-15T01:38:46.853Z,5.40
2023-02-15T01:41:28.305Z,5.30
2023-02-15T01:44:03.717Z,5.10
2023-02-15T01:46:47.125Z,5.00
2023-02-15T01:49:18.594Z,5.00
2023-02-15T01:51:49.987Z,5.00
2023-02-15T01:54:30.319Z,5.00
2023-02-15T01:57:06.122Z,5.00
2023-02-15T01:59:37.324Z,4.90
2023-02-15T02:02:06.939Z,5.00
2023-02-15T02:04:46.454Z,5.30
2023-02-15T02:07:17.483Z,5.40
2023-02-15T02:09:46.383Z,5.20
2023-02-15T02:12:15.494Z,5.10
2023-02-15T02:14:43.927Z,5.10
2023-02-15T02:17:16.830Z,5.20
2023-02-15T02:20:09.383Z,5.30
2023-02-15T02:22:58.320Z,5.30
2023-02-15T02:26:01.230Z,5.30
2023-02-15T02:28:39.424Z,5.30
2023-02-15T02:31:41.430Z,5.40
2023-02-15T02:34:38.995Z,5.40
2023-02-15T02:37:16.945Z,5.30
2023-02-15T02:40:19.953Z,5.20
2023-02-15T02:43:01.770Z,5.20
2023-02-15T02:46:12.839Z,5.20
2023-02-15T02:48:40.922Z,5.10
2023-02-15T02:51:08.740Z,5.00
2023-02-15T02:53:36.675Z,5.00
2023-02-15T02:56:19.985Z,5.00
2023-02-15T02:58:52.926Z,4.90
2023-02-15T03:01:31.940Z,5.00
2023-02-15T03:04:07.176Z,5.00
2023-02-15T03:06:44.880Z,4.90
2023-02-15T03:09:20.918Z,5.00
2023-02-15T03:11:49.475Z,5.00
2023-02-15T03:14:19.629Z,5.10
2023-02-15T03:16:51.360Z,5.20
2023-02-15T03:19:27.942Z,5.20
2023-02-15T03:22:10.615Z,5.00
2023-02-15T03:24:44.696Z,5.10
2023-02-15T03:27:19.037Z,5.00
2023-02-15T03:29:56.481Z,5.20
2023-02-15T03:32:26.801Z,5.20
2023-02-15T03:34:54.484Z,5.30
2023-02-15T03:37:33.537Z,5.30
2023-02-15T03:47:16.445Z,5.40
2023-02-15T03:49:55.092Z,5.30
2023-02-15T03:52:26.508Z,5.20
2023-02-15T03:54:54.565Z,5.10
2023-02-15T03:57:44.289Z,4.90
2023-02-15T04:00:40.544Z,4.70
2023-02-15T04:03:27.695Z,4.70
2023-02-15T04:05:55.494Z,4.90
2023-02-15T04:08:43.152Z,4.90
2023-02-15T04:11:10.890Z,4.70
2023-02-15T04:13:38.639Z,4.70
2023-02-15T04:16:07.688Z,4.50
2023-02-15T04:19:02.018Z,4.60
2023-02-15T04:21:49.900Z,4.70
2023-02-15T04:24:36.560Z,4.60
2023-02-15T04:27:05.981Z,4.60
2023-02-15T04:29:33.766Z,4.60
2023-02-15T04:32:02.800Z,4.60
2023-02-15T04:34:30.613Z,4.60
2023-02-15T04:36:58.281Z,4.60
2023-02-15T04:39:26.008Z,4.50
2023-02-15T04:41:53.832Z,4.50
2023-02-15T04:44:21.569Z,4.50
2023-02-15T04:46:49.382Z,4.40
2023-02-15T04:49:17.092Z,4.50
2023-02-15T04:51:44.816Z,4.40
2023-02-15T04:54:12.505Z,4.40
2023-02-15T04:56:41.196Z,4.40
2023-02-15T04:59:11.665Z,4.40
2023-02-15T05:01:39.363Z,4.20
2023-02-15T05:04:07.330Z,4.00
2023-02-15T05:06:35.438Z,4.00
2023-02-15T05:09:03.186Z,4.00
2023-02-15T05:11:30.836Z,4.00
2023-02-15T05:13:58.543Z,4.00
2023-02-15T05:16:28.879Z,4.10
2023-02-15T05:18:56.854Z,4.00
2023-02-15T05:21:24.982Z,4.00
2023-02-15T05:23:52.610Z,3.90
2023-02-15T05:26:41.825Z,3.90
2023-02-15T05:29:10.321Z,3.90
2023-02-15T05:31:39.202Z,3.80
2023-02-15T05:34:07.018Z,3.90
2023-02-15T05:36:34.681Z,3.90
2023-02-15T05:39:02.380Z,3.70
2023-02-15T05:41:30.091Z,3.70
2023-02-15T05:43:57.993Z,3.70
2023-02-15T05:46:25.652Z,3.60
2023-02-15T05:48:53.332Z,3.50
2023-02-15T05:51:21.042Z,3.50
2023-02-15T05:53:48.712Z,3.40
2023-02-15T05:56:16.551Z,3.30
2023-02-15T05:58:44.341Z,3.40
2023-02-15T06:01:14.265Z,3.40
2023-02-15T06:03:42.898Z,3.50
2023-02-15T06:06:10.995Z,3.50
2023-02-15T06:08:39.323Z,3.60
2023-02-15T06:11:08.055Z,3.60
2023-02-15T06:13:38.503Z,3.40
2023-02-15T06:16:07.981Z,3.30
2023-02-15T06:18:35.911Z,3.30
2023-02-15T06:21:03.836Z,3.30
2023-02-15T06:23:31.548Z,3.30
2023-02-15T06:25:59.570Z,3.40
2023-02-15T06:28:27.362Z,3.40
2023-02-15T06:30:55.584Z,3.30
2023-02-15T06:33:23.558Z,3.20
2023-02-15T06:35:51.188Z,3.10
2023-02-15T06:38:18.903Z,3.10
2023-02-15T06:40:46.545Z,3.10
2023-02-15T06:43:14.766Z,3.20
2023-02-15T06:45:43.306Z,3.30
2023-02-15T06:48:12.242Z,3.40
2023-02-15T06:50:39.947Z,3.40
2023-02-15T06:53:07.693Z,3.50
2023-02-15T06:55:35.472Z,3.30
2023-02-15T06:58:03.107Z,3.50
2023-02-15T07:00:30.945Z,3.70
2023-02-15T07:02:59.572Z,3.80
2023-02-15T07:05:32.160Z,3.90
2023-02-15T07:08:00.719Z,4.00
2023-02-15T07:10:29.209Z,4.10
2023-02-15T07:12:57.393Z,4.10
2023-02-15T07:15:25.493Z,4.30
2023-02-15T07:17:53.222Z,4.40
2023-02-15T07:20:23.393Z,4.50
2023-02-15T07:22:51.872Z,4.50
2023-02-15T07:25:19.660Z,4.40
2023-02-15T07:27:47.339Z,4.30
2023-02-15T07:30:17.750Z,4.50
2023-02-15T07:33:05.776Z,4.70
2023-02-15T07:35:34.477Z,4.70
2023-02-15T07:38:02.828Z,4.80
2023-02-15T07:40:30.512Z,4.80
2023-02-15T07:43:00.391Z,4.70
2023-02-15T07:45:28.436Z,4.80
2023-02-15T07:47:56.130Z,4.90
2023-02-15T07:50:23.932Z,5.10
2023-02-15T07:52:51.608Z,5.30
2023-02-15T07:55:19.768Z,5.50
2023-02-15T07:57:49.648Z,5.60
2023-02-15T08:00:22.628Z,5.80
2023-02-15T08:03:13.915Z,5.80
2023-02-15T08:05:44.296Z,6.20
2023-02-15T08:08:31.375Z,6.40
2023-02-15T08:11:38.674Z,6.40
2023-02-15T08:14:15.341Z,6.20
2023-02-15T08:16:45.771Z,6.30
2023-02-15T08:19:23.773Z,6.30
2023-02-15T08:21:54.759Z,6.30
2023-02-15T08:24:23.926Z,6.30
2023-02-15T08:26:52.804Z,6.40
2023-02-15T08:29:26.268Z,6.40
2023-02-15T08:31:59.882Z,6.40
2023-02-15T08:34:27.804Z,6.80
2023-02-15T08:36:55.644Z,7.00
2023-02-15T08:39:23.842Z,7.10
2023-02-15T08:41:51.682Z,7.10
2023-02-15T08:44:21.019Z,7.20
2023-02-15T08:46:49.969Z,7.50
2023-02-15T08:49:20.448Z,7.40
2023-02-15T08:51:50.024Z,7.60
2023-02-15T08:54:20.445Z,7.60
2023-02-15T08:56:48.476Z,7.60
2023-02-15T08:59:19.806Z,7.70
2023-02-15T09:01:48.637Z,7.70
2023-02-15T09:04:17.018Z,7.80
2023-02-15T09:06:48.567Z,7.90
2023-02-15T09:09:18.364Z,8.20
2023-02-15T09:11:48.468Z,8.30
2023-02-15T09:14:21.643Z,8.40
2023-02-15T09:16:50.945Z,8.40
2023-02-15T09:19:21.084Z,8.60
2023-02-15T09:21:49.475Z,8.80
2023-02-15T09:24:18.620Z,8.90
2023-02-15T09:26:48.766Z,9.10
2023-02-15T09:29:18.057Z,9.20
2023-02-15T09:31:50.002Z,9.30
2023-02-15T09:34:20.904Z,9.50
2023-02-15T09:36:50.443Z,9.50
2023-02-15T09:39:27.746Z,9.40
2023-02-15T09:42:33.898Z,9.60
2023-02-15T09:45:15.259Z,9.80
2023-02-15T09:47:58.304Z,9.80
2023-02-15T09:50:32.544Z,9.90
2023-02-15T09:53:22.327Z,10.00
2023-02-15T09:55:50.074Z,10.00
2023-02-15T09:58:52.072Z,10.20
2023-02-15T10:01:38.513Z,10.40
2023-02-15T10:04:35.799Z,10.40
2023-02-15T10:07:27.445Z,10.50
2023-02-15T10:10:13.299Z,10.60
2023-02-15T10:12:41.129Z,10.70
2023-02-15T10:15:28.052Z,10.70
2023-02-15T10:18:49.710Z,10.80
2023-02-15T10:21:31.455Z,11.00
2023-02-15T10:23:59.320Z,11.20
2023-02-15T10:26:43.948Z,11.20
2023-02-15T10:29:22.109Z,11.20
2023-02-15T10:32:06.370Z,11.30
2023-02-15T10:34:44.437Z,11.50
2023-02-15T10:37:42.473Z,11.80
2023-02-15T10:40:22.114Z,11.90
2023-02-15T10:43:03.440Z,12.00
2023-02-15T10:45:40.858Z,12.00
2023-02-15T10:48:30.152Z,12.20
2023-02-15T10:51:03.503Z,12.30
2023-02-15T10:54:03.894Z,12.50
2023-02-15T10:56:45.699Z,12.50
2023-02-15T10:59:38.862Z,12.60
2023-02-15T11:02:19.097Z,12.50
2023-02-15T11:04:53.159Z,12.70
2023-02-15T11:07:20.772Z,12.80
2023-02-15T11:10:13.699Z,12.90
2023-02-15T11:12:45.764Z,13.10
2023-02-15T11:15:42.726Z,13.20
2023-02-15T11:18:23.412Z,13.40
2023-02-15T11:21:27.750Z,13.70
2023-02-15T11:23:56.504Z,13.70
2023-02-15T11:26:43.541Z,13.80
2023-02-15T11:29:26.627Z,13.90
2023-02-15T11:32:14.557Z,14.00
2023-02-15T11:34:58.966Z,14.40
2023-02-15T11:37:33.808Z,14.60
2023-02-15T11:40:04.460Z,14.50
2023-02-15T11:42:34.060Z,14.50
2023-02-15T11:45:32.613Z,14.70
2023-02-15T11:48:01.497Z,15.00
2023-02-15T11:50:33.963Z,15.20
2023-02-15T11:53:07.390Z,15.40
2023-02-15T11:55:36.242Z,15.50
2023-02-15T11:58:16.702Z,15.70
2023-02-15T12:00:51.495Z,15.70
2023-02-15T12:03:23.634Z,15.90
2023-02-15T12:05:57.472Z,16.10
2023-02-15T12:08:38.261Z,16.10
2023-02-15T12:11:05.933Z,16.30
2023-02-15T12:13:33.753Z,16.10
2023-02-15T12:16:11.080Z,16.40
2023-02-15T12:18:40.691Z,16.50
2023-02-15T12:21:14.600Z,16.60
2023-02-15T12:23:49.748Z,16.80
2023-02-15T12:26:24.948Z,16.90
2023-02-15T12:28:55.649Z,16.70
2023-02-15T12:31:48.072Z,16.70
2023-02-15T12:34:24.639Z,17.10
2023-02-15T12:36:59.227Z,17.30
2023-02-15T12:39:29.346Z,17.40
2023-02-15T12:41:57.050Z,17.40
2023-02-15T12:44:30.038Z,17.60
2023-02-15T12:47:05.002Z,17.60
2023-02-15T12:49:38.018Z,17.70
2023-02-15T12:52:27.398Z,17.80
2023-02-15T12:54:55.264Z,17.90
2023-02-15T12:57:32.559Z,17.90
2023-02-15T13:00:04.206Z,17.90
2023-02-15T13:02:45.907Z,18.00
2023-02-15T13:05:32.293Z,18.00
2023-02-15T13:08:16.543Z,18.10
2023-02-15T13:10:54.547Z,18.10
2023-02-15T13:13:30.470Z,18.10
2023-02-15T13:16:13.419Z,18.20
2023-02-15T13:18:45.510Z,18.30
2023-02-15T13:21:21.967Z,18.20
2023-02-15T13:23:53.441Z,18.10
2023-02-15T13:26:24.667Z,18.30
2023-02-15T13:28:56.792Z,18.40
2023-02-15T13:31:33.775Z,18.30
2023-02-15T13:34:20.220Z,18.40
2023-02-15T13:36:51.603Z,18.40
2023-02-15T13:40:01.179Z,18.30
2023-02-15T13:42:41.101Z,18.40
2023-02-15T13:45:17.422Z,18.30
2023-02-15T13:48:18.022Z,18.20
2023-02-15T13:51:10.269Z,18.20
2023-02-15T13:54:00.183Z,18.10
2023-02-15T13:56:36.397Z,18.00
2023-02-15T13:59:41.719Z,17.90
2023-02-15T14:02:12.647Z,18.10
2023-02-15T14:04:55.409Z,18.20
2023-02-15T14:07:41.678Z,18.20
2023-02-15T14:10:39.945Z,18.10
2023-02-15T14:13:45.640Z,17.90
2023-02-15T14:16:36.944Z,17.80
2023-02-15T14:19:31.213Z,17.80
2023-02-15T14:22:29.601Z,17.70
2023-02-15T14:25:31.316Z,17.70
2023-02-15T14:28:14.477Z,17.40
2023-02-15T14:30:46.913Z,17.50
2023-02-15T14:33:14.811Z,17.60
2023-02-15T14:35:44.108Z,17.30
2023-02-15T14:38:46.273Z,17.20
2023-02-15T14:41:20.251Z,17.10
2023-02-15T14:44:03.410Z,17.00
2023-02-15T14:46:59.113Z,16.90
2023-02-15T14:49:37.367Z,16.90
2023-02-15T14:52:12.636Z,16.80
2023-02-15T14:54:40.251Z,16.80
2023-02-15T14:57:07.926Z,16.80
2023-02-15T14:59:57.071Z,16.60
2023-02-15T15:02:28.926Z,16.60
2023-02-15T15:05:03.019Z,16.70
2023-02-15T15:07:44.997Z,16.60
2023-02-15T15:10:18.170Z,16.70
2023-02-15T15:12:46.837Z,16.60
2023-02-15T15:15:32.132Z,16.60
2023-02-15T15:18:10.965Z,16.40
2023-02-15T15:20:52.120Z,16.50
2023-02-15T15:23:20.074Z,16.50
2023-02-15T15:26:18.346Z,16.40
2023-02-15T15:28:46.070Z,16.40
2023-02-15T15:31:39.214Z,16.40
2023-02-15T15:34:19.248Z,16.30
2023-02-15T15:37:33.504Z,16.20
2023-02-15T15:40:26.097Z,16.10
2023-02-15T15:43:28.266Z,16.10
2023-02-15T15:46:22.978Z,16.00
2023-02-15T15:48:50.752Z,16.00
2023-02-15T15:51:42.917Z,15.90
2023-02-15T15:54:19.768Z,15.90
2023-02-15T15:56:54.181Z,15.90
2023-02-15T15:59:28.005Z,15.80
2023-02-15T16:01:56.342Z,15.60
2023-02-15T16:04:31.747Z,15.30
2023-02-15T16:07:14.987Z,15.10
2023-02-15T16:09:43.050Z,15.00
2023-02-15T16:12:18.768Z,14.70
2023-02-15T16:14:52.016Z,14.60
2023-02-15T16:17:24.325Z,14.40
2023-02-15T16:19:54.439Z,14.30
2023-02-15T16:22:30.223Z,14.20
2023-02-15T16:24:58.049Z,14.10
2023-02-15T16:27:36.560Z,14.00
2023-02-15T16:30:22.826Z,13.80
2023-02-15T16:32:54.397Z,13.80
2023-02-15T16:35:23.628Z,13.70
2023-02-15T16:37:51.671Z,13.50
2023-02-15T16:40:26.357Z,13.40
2023-02-15T16:43:02.433Z,13.40
2023-02-15T16:45:33.110Z,13.30
2023-02-15T16:48:06.707Z,13.20
2023-02-15T16:50:37.992Z,13.10
2023-02-15T16:53:07.961Z,13.00
2023-02-15T16:55:43.639Z,12.90
2023-02-15T16:58:17.879Z,12.80
2023-02-15T17:00:46.186Z,12.70
2023-02-15T17:03:13.889Z,12.60
2023-02-15T17:05:50.463Z,12.50
2023-02-15T17:08:29.790Z,12.40
2023-02-15T17:11:00.753Z,12.30
2023-02-15T17:13:29.920Z,12.30
2023-02-15T17:16:01.033Z,12.30
2023-02-15T17:18:32.537Z,12.20
2023-02-15T17:21:17.866Z,12.10
2023-02-15T17:23:51.975Z,12.10
2023-02-15T17:26:24.505Z,12.00
2023-02-15T17:28:57.197Z,11.90
2023-02-15T17:31:35.123Z,11.90
2023-02-15T17:34:03.604Z,11.80
2023-02-15T17:36:32.820Z,11.80
2023-02-15T17:39:05.750Z,11.70
2023-02-15T17:41:40.396Z,11.50
2023-02-15T17:44:12.260Z,11.50
2023-02-15T17:46:40.803Z,11.50
2023-02-15T17:49:15.826Z,11.40
2023-02-15T17:51:43.574Z,11.50
2023-02-15T17:54:30.036Z,11.40
2023-02-15T17:57:03.469Z,11.30
2023-02-15T17:59:31.242Z,11.20
2023-02-15T18:02:17.378Z,11.20
2023-02-15T18:05:04.347Z,11.10
2023-02-15T18:07:50.512Z,11.10
2023-02-15T18:10:38.286Z,11.10
2023-02-15T18:13:06.041Z,11.10
2023-02-15T18:15:33.786Z,10.90
2023-02-15T18:18:02.482Z,10.90
2023-02-15T18:20:34.999Z,10.80
2023-02-15T18:23:02.742Z,10.80
2023-02-15T18:25:30.426Z,10.80
2023-02-15T18:27:58.162Z,10.70
2023-02-15T18:30:27.085Z,10.80
2023-02-15T18:32:57.811Z,10.70
2023-02-15T18:35:29.360Z,10.60
2023-02-15T18:37:58.525Z,10.60
2023-02-15T18:40:28.628Z,10.60
2023-02-15T18:42:57.269Z,10.70
2023-02-15T18:45:28.752Z,10.60
2023-02-15T18:47:56.458Z,10.50
2023-02-15T18:50:27.510Z,10.40
2023-02-15T18:52:55.336Z,10.30
2023-02-15T18:55:29.846Z,10.20
2023-02-15T18:57:58.054Z,10.10
2023-02-15T19:00:32.149Z,10.00
2023-02-15T19:03:00.779Z,9.80
2023-02-15T19:05:37.739Z,9.90
2023-02-15T19:08:05.688Z,9.80
2023-02-15T19:10:34.097Z,9.70
2023-02-15T19:13:02.558Z,9.70
2023-02-15T19:15:31.322Z,9.70
2023-02-15T19:17:59.051Z,9.60
2023-02-15T19:20:31.573Z,9.60
2023-02-15T19:23:02.024Z,9.60
2023-02-15T19:25:41.608Z,9.60
2023-02-15T19:28:18.937Z,9.50
2023-02-15T19:30:46.860Z,9.50
2023-02-15T19:33:20.208Z,9.50
2023-02-15T19:35:52.607Z,9.50
2023-02-15T19:38:25.640Z,9.60
2023-02-15T19:40:55.435Z,9.70
2023-02-15T19:43:28.066Z,9.90
2023-02-15T19:45:56.039Z,9.90
2023-02-15T19:48:23.875Z,10.00
2023-02-15T19:50:52.986Z,9.90
2023-02-15T19:53:25.437Z,9.90
2023-02-15T19:55:53.718Z,9.90
2023-02-15T19:58:22.665Z,9.90
2023-02-15T20:00:55.381Z,9.90
2023-02-15T20:03:23.634Z,9.90
2023-02-15T20:05:51.604Z,9.80
2023-02-15T20:08:22.364Z,9.60
2023-02-15T20:10:50.175Z,9.60
2023-02-15T20:13:20.049Z,9.60
2023-02-15T20:15:50.478Z,9.70
2023-02-15T20:18:20.360Z,9.60
2023-02-15T20:20:54.915Z,9.50
2023-02-15T20:23:30.983Z,9.40
2023-02-15T20:26:01.196Z,9.40
2023-02-15T20:28:31.746Z,9.20
2023-02-15T20:31:00.367Z,9.10
2023-02-15T20:33:29.188Z,9.10
2023-02-15T20:35:57.032Z,9.00
2023-02-15T20:38:28.288Z,9.00
2023-02-15T20:41:15.884Z,9.10
2023-02-15T20:43:43.844Z,9.00
2023-02-15T20:46:11.627Z,8.90
2023-02-15T20:48:39.429Z,8.80
2023-02-15T20:51:18.019Z,8.60
2023-02-15T20:53:46.169Z,8.50
2023-02-15T20:56:22.075Z,8.60
2023-02-15T20:58:50.966Z,8.50
2023-02-15T21:01:21.910Z,8.70
2023-02-15T21:03:49.726Z,8.70
2023-02-15T21:06:18.420Z,8.70
2023-02-15T21:08:46.341Z,8.60
2023-02-15T21:11:22.412Z,8.40
2023-02-15T21:13:50.994Z,8.40
2023-02-15T21:16:19.166Z,8.50
2023-02-15T21:18:46.936Z,8.40
2023-02-15T21:21:23.629Z,8.30
2023-02-15T21:23:52.792Z,8.20
2023-02-15T21:26:22.896Z,8.10
2023-02-15T21:28:50.984Z,8.30
2023-02-15T21:31:22.114Z,8.40
2023-02-15T21:33:50.093Z,8.30
2023-02-15T21:36:22.139Z,8.10
2023-02-15T21:38:51.147Z,7.90
2023-02-15T21:41:40.480Z,7.80
2023-02-15T21:44:42.754Z,7.60
2023-02-15T21:47:40.840Z,7.50
2023-02-15T21:50:30.423Z,7.40
2023-02-15T21:52:59.445Z,7.30
2023-02-15T21:55:28.718Z,7.40
2023-02-15T21:57:57.375Z,7.40
2023-02-15T22:00:26.698Z,7.40
2023-02-15T22:02:58.408Z,7.40
2023-02-15T22:05:33.465Z,7.40
2023-02-15T22:08:01.518Z,7.40
2023-02-15T22:10:33.461Z,7.50
2023-02-15T22:13:02.820Z,7.40
2023-02-15T22:15:37.864Z,7.30
2023-02-15T22:18:06.374Z,7.30
2023-02-15T22:20:34.316Z,7.20
2023-02-15T22:23:02.164Z,7.10
2023-02-15T22:25:30.009Z,7.00
2023-02-15T22:27:57.967Z,7.10
2023-02-15T22:30:33.432Z,7.30
2023-02-15T22:33:01.505Z,7.30
2023-02-15T22:35:32.654Z,7.40
2023-02-15T22:38:00.944Z,7.20
2023-02-15T22:40:33.168Z,7.30
2023-02-15T22:43:05.806Z,7.30
2023-02-15T22:45:36.505Z,7.20
2023-02-15T22:48:04.470Z,7.00
2023-02-15T22:50:33.363Z,6.80
2023-02-15T22:53:02.555Z,6.70
2023-02-15T22:55:33.723Z,6.80
2023-02-15T22:58:02.535Z,6.80
2023-02-15T23:00:34.001Z,7.10
2023-02-15T23:03:02.291Z,7.20
2023-02-15T23:05:31.450Z,7.10
2023-02-15T23:07:59.117Z,7.00
2023-02-15T23:10:28.924Z,6.80
2023-02-15T23:13:34.733Z,7.00
2023-02-15T23:16:05.284Z,7.00
2023-02-15T23:18:38.709Z,6.90
2023-02-15T23:21:21.304Z,6.70
2023-02-15T23:23:55.135Z,6.60
2023-02-15T23:26:27.797Z,6.70
2023-02-15T23:28:58.180Z,6.60
2023-02-15T23:31:33.463Z,6.60
2023-02-15T23:34:07.420Z,6.50
2023-02-15T23:36:38.046Z,6.60
2023-02-15T23:39:39.342Z,6.60
2023-02-15T23:42:12.618Z,6.60
2023-02-15T23:44:41.156Z,6.40
2023-02-15T23:47:44.129Z,6.40
2023-02-15T23:50:27.250Z,6.40
2023-02-15T23:52:56.527Z,6.50
2023-02-15T23:55:36.135Z,6.50
2023-02-15T23:58:13.860Z,6.60
